DK-0033 weather

Bjedstrup Airstrip
Bjedstrup, Denmark

Public forecast

Using degrees Celsius for public forecast. Weather courtesy of forecast.io.

Closest aviation weather report (METAR) to Bjedstrup Airstrip

Closest report is Karup Airport, 28.3 nm (52.4 km) WNW. Retrieved 2020/04/10 02:20 UTC (5 minutes ago):

EKKA 100220Z AUTO 24005KT 9999 NCD 01/M01 Q1026

Closest aviation forecast (TAF) to Bjedstrup Airstrip

Closest forecast is Karup Airport, 28.3 nm (52.4 km) WNW. Retrieved 2020-04-10 03:32 UTC (0 seconds ago):

TAF EKKA 100207Z 1003/1103 29008KT 9999 SCT200 TEMPO 1010/1015 31012G22KT BECMG 1021/1024 VRB03KT